Belk, Alabama
Current Conditions -  °F | °C
As of 3:58 AM on Thursday 29 Jan 2015 (Local Time) from KCBM Reporting Station
Clear Clear  
Wind Chill: 37°   Ceiling: Unl
Heat Index: 43°   Visibility: 10mi
Dew Point: 31°   Wind: 10mph
Humidity: 63%   Direction: 160°SSE
Pressure: 30.18"   Gusts: NA
Location:  33.65°N, 87.93°W
Report Text: KCBM 290958Z AUTO 16009KT 10SM CLR 06/00 A3018 RMK AO2 UPB47 SLP223 P0000 T00621004 $
Loading
Personal Weather Stations






























Interactive Weather Map New forecast layout! Learn more

10-Day Weather Forecast

Advertisements
Track Severe Weather on mobile